EHGG

Eelde Airport

Groningen, The Netherlands
TAF AMD EHGG 201956Z 2019/2124 VRB03KT 2500 BR NSC TEMPO 2101/2108 0600 BCFG FZFG BECMG 2108/2111 6000 NSW BKN015 PROB30 TEMPO 2110/2113 -FZDZRA
Issued Valid From Valid To
Jan-20 @ 19:56 UTC
(2 hours ago)
Jan-20 @ 19:00 UTC
(3 hours ago)
Jan-22 @ 00:00 UTC
(-1 days ago)
Jan-20 @ 19:00 to Jan-21 @ 08:00
TAF AMD EHGG 201956Z 2019/2124 VRB03KT 2500 BR NSC
Wind Visibility Clouds Conditions
Variable at 3 knots 2,494 meters
  • No significant clouds
  • Mist
Temporary Jan-21 @ 01:00 to Jan-21 @ 08:00
TEMPO 2101/2108 0600 BCFG FZFG
Visibility Conditions
595 meters
  • Patches of
  • Fog
  • Freezing
  • Fog
Becoming Jan-21 @ 08:00 to Jan-22 @ 00:00
BECMG 2108/2111 6000 NSW BKN015
Wind Visibility Clouds Conditions
Variable at 3 knots 6,003 meters
  • Broken at 1,500' AGL
Temporary  (Probability 30%) Jan-21 @ 10:00 to Jan-21 @ 13:00
PROB30 TEMPO 2110/2113 -FZDZRA
Conditions
  • Light Freezing
  • Light Drizzle
  • Rain
TAF AMD EHGG 201956Z 2019/2124 VRB03KT 2500 BR NSC TEMPO 2101/2108 0600 BCFG FZFG BECMG 2108/2111 6000 NSW BKN015 PROB30 TEMPO 2110/2113 -FZDZRA
Issued Jan-20 @ 19:56 UTC
(2 hours ago)
Valid From Jan-20 @ 19:00 UTC
(3 hours ago)
Valid To Jan-22 @ 00:00 UTC
(-1 days ago)
Jan-20 @ 19:00 - Jan-21 @ 08:00
Wind Visibility
Variable at 3 knots 2,494 meters
Clouds
  • No significant clouds
Conditions
  • Mist
Temporary Jan-21 @ 01:00 - Jan-21 @ 08:00
Conditions
  • Patches of
  • Fog
  • Freezing
  • Fog
Becoming Jan-21 @ 08:00 - Jan-22 @ 00:00
Wind Visibility
Variable at 3 knots 6,003 meters
Clouds
  • Broken at 1,500' AGL
Conditions
Probability 30% Temporary Jan-21 @ 10:00 - Jan-21 @ 13:00
Conditions
  • Light Freezing
  • Light Drizzle
  • Rain